Time;durP1;ratioP1;P1;durP2;ratioP2;P2;SDS_P1;SDS_P2;PMS_P1;PMS_P2;Temp;Humidity;BMP_temperature;BMP_pressure;BME280_temperature;BME280_humidity;BME280_pressure;Samples;Min_cycle;Max_cycle;Signal;HPM_P1;HPM_P2
2021/12/31 00:00:29;;;;;;;84.88;44.25;;;;;;;;;;5071764;28;20040;-40
2021/12/31 00:02:55;;;;;;;89.00;48.17;;;;;;;;;;5071533;28;20031;-40
2021/12/31 00:05:22;;;;;;;92.05;50.72;;;;;;;;;;5071011;28;20056;-41
2021/12/31 00:07:48;;;;;;;84.25;48.58;;;;;;;;;;5071788;28;20057;-42
2021/12/31 00:10:15;;;;;;;94.82;50.50;;;;;;;;;;5071109;28;20151;-42
2021/12/31 00:12:42;;;;;;;110.93;57.00;;;;;;;;;;5071619;28;20524;-41
2021/12/31 00:15:09;;;;;;;101.90;51.83;;;;;;;;;;5071367;28;20040;-40
2021/12/31 00:17:35;;;;;;;86.47;47.20;;;;;;;;;;5071210;28;20017;-42
2021/12/31 00:20:08;;;;;;;84.25;45.65;;;;;;;;;;5071269;28;20107;-41
2021/12/31 00:25:03;;;;;;;73.13;40.30;;;;;;;;;;5071096;28;20031;-39
2021/12/31 00:27:29;;;;;;;87.97;49.70;;;;;;;;;;5070591;28;20272;-43
2021/12/31 00:29:55;;;;;;;72.35;41.05;;;;;;;;;;5070912;28;20036;-43
2021/12/31 00:32:21;;;;;;;99.93;56.78;;;;;;;;;;5071191;28;20048;-40
2021/12/31 00:34:47;;;;;;;73.45;41.03;;;;;;;;;;5070804;28;20739;-38
2021/12/31 00:37:13;;;;;;;89.43;47.95;;;;;;;;;;5071437;28;20038;-43
2021/12/31 00:39:39;;;;;;;96.75;53.53;;;;;;;;;;5070670;28;20297;-41
2021/12/31 00:42:06;;;;;;;93.32;51.85;;;;;;;;;;5070944;28;20024;-38
2021/12/31 00:44:34;;;;;;;90.15;49.65;;;;;;;;;;5070986;28;20260;-41
2021/12/31 00:47:00;;;;;;;73.50;42.25;;;;;;;;;;5070647;28;20138;-40
2021/12/31 00:49:26;;;;;;;76.15;41.83;;;;;;;;;;5070878;28;20038;-44
2021/12/31 00:51:53;;;;;;;72.30;41.60;;;;;;;;;;5070559;28;20431;-41
2021/12/31 00:54:19;;;;;;;67.85;39.58;;;;;;;;;;5070880;28;20031;-40
2021/12/31 00:56:45;;;;;;;93.45;51.28;;;;;;;;;;5069237;28;20040;-38
2021/12/31 00:59:11;;;;;;;92.13;50.75;;;;;;;;;;5070327;28;21070;-42
2021/12/31 01:01:37;;;;;;;82.53;45.53;;;;;;;;;;5094726;28;20027;-40
2021/12/31 01:04:03;;;;;;;80.20;43.60;;;;;;;;;;5095154;28;20024;-41
2021/12/31 01:06:30;;;;;;;76.72;41.88;;;;;;;;;;5095243;28;20024;-38
2021/12/31 01:08:56;;;;;;;93.30;51.25;;;;;;;;;;5095176;28;20550;-39
2021/12/31 01:11:22;;;;;;;72.57;41.42;;;;;;;;;;5095061;28;20027;-40
2021/12/31 01:13:56;;;;;;;111.70;62.33;;;;;;;;;;5095150;28;20032;-41
2021/12/31 01:16:23;;;;;;;67.78;37.05;;;;;;;;;;5094977;28;20081;-40
2021/12/31 01:21:20;;;;;;;84.00;47.88;;;;;;;;;;5095223;28;20516;-41
2021/12/31 01:23:46;;;;;;;62.15;35.88;;;;;;;;;;5094894;28;20485;-41
2021/12/31 01:26:12;;;;;;;59.80;34.22;;;;;;;;;;5094843;28;20031;-41
2021/12/31 01:28:38;;;;;;;64.95;37.20;;;;;;;;;;5094698;28;20056;-41
2021/12/31 01:31:04;;;;;;;70.13;39.08;;;;;;;;;;5094625;28;20115;-42
2021/12/31 01:33:31;;;;;;;88.78;50.53;;;;;;;;;;5095098;28;20032;-41
2021/12/31 01:35:57;;;;;;;69.93;38.72;;;;;;;;;;5094650;28;20024;-41
2021/12/31 01:38:23;;;;;;;89.35;50.33;;;;;;;;;;5094647;28;20028;-41
2021/12/31 01:40:53;;;;;;;80.32;46.72;;;;;;;;;;5094514;28;20024;-45
2021/12/31 01:43:20;;;;;;;64.20;36.97;;;;;;;;;;5094528;28;20024;-43
2021/12/31 01:45:54;;;;;;;68.68;39.92;;;;;;;;;;5094344;28;20484;-40
2021/12/31 01:48:35;;;;;;;86.90;48.97;;;;;;;;;;5094420;28;20485;-46
2021/12/31 01:51:01;;;;;;;89.15;49.03;;;;;;;;;;5094319;28;20071;-51
2021/12/31 01:53:27;;;;;;;67.05;38.42;;;;;;;;;;5094507;28;20046;-45
2021/12/31 01:55:57;;;;;;;67.45;38.13;;;;;;;;;;5094296;28;20030;-42
2021/12/31 01:58:24;;;;;;;65.18;36.92;;;;;;;;;;5094206;28;20039;-46
2021/12/31 02:00:51;;;;;;;56.15;34.17;;;;;;;;;;5094170;28;20115;-43
2021/12/31 02:03:21;;;;;;;59.92;34.58;;;;;;;;;;5094114;28;20059;-42
2021/12/31 02:05:47;;;;;;;76.40;44.03;;;;;;;;;;5094293;28;20037;-41
2021/12/31 02:08:13;;;;;;;83.85;45.85;;;;;;;;;;5094043;28;20016;-41
2021/12/31 02:10:39;;;;;;;89.35;47.55;;;;;;;;;;5093977;28;20059;-41
2021/12/31 02:13:07;;;;;;;73.65;43.10;;;;;;;;;;5093894;28;20024;-46
2021/12/31 02:15:33;;;;;;;81.05;44.95;;;;;;;;;;5094033;28;20024;-40
2021/12/31 02:18:00;;;;;;;80.35;48.05;;;;;;;;;;5094143;28;20020;-41
2021/12/31 02:20:43;;;;;;;92.80;52.15;;;;;;;;;;5094027;28;20032;-47
2021/12/31 02:23:15;;;;;;;84.65;48.35;;;;;;;;;;5093790;28;20107;-47
2021/12/31 02:25:41;;;;;;;78.90;44.45;;;;;;;;;;5093749;28;20020;-44
2021/12/31 02:28:07;;;;;;;60.53;35.92;;;;;;;;;;5093579;28;20051;-48
2021/12/31 02:30:34;;;;;;;64.90;37.80;;;;;;;;;;5093633;28;20067;-44
2021/12/31 02:33:02;;;;;;;81.38;45.65;;;;;;;;;;5093657;28;20024;-48
2021/12/31 02:35:28;;;;;;;68.60;39.22;;;;;;;;;;5093601;28;20496;-43
2021/12/31 02:37:54;;;;;;;62.78;35.40;;;;;;;;;;5093587;28;20024;-47
2021/12/31 02:40:21;;;;;;;61.95;33.10;;;;;;;;;;5093614;28;20028;-46
2021/12/31 02:42:47;;;;;;;84.93;42.20;;;;;;;;;;5093531;28;20590;-45
2021/12/31 02:45:14;;;;;;;73.28;39.42;;;;;;;;;;5093510;28;20038;-40
2021/12/31 02:47:45;;;;;;;83.35;46.70;;;;;;;;;;5093824;28;20044;-43
2021/12/31 02:50:18;;;;;;;88.72;49.03;;;;;;;;;;5093465;28;20043;-41
2021/12/31 02:52:45;;;;;;;74.90;41.22;;;;;;;;;;5093482;28;20027;-41
2021/12/31 02:55:12;;;;;;;86.63;48.90;;;;;;;;;;5093381;28;20035;-42
2021/12/31 02:57:39;;;;;;;83.90;46.22;;;;;;;;;;5093236;28;20024;-42
2021/12/31 03:00:08;;;;;;;65.85;38.95;;;;;;;;;;5093403;28;20032;-44
2021/12/31 03:02:39;;;;;;;70.20;39.33;;;;;;;;;;5093640;28;20036;-51
2021/12/31 03:05:06;;;;;;;63.15;34.70;;;;;;;;;;5093605;28;20048;-40
2021/12/31 03:07:34;;;;;;;63.03;38.30;;;;;;;;;;5093234;28;20035;-50
2021/12/31 03:10:00;;;;;;;79.07;43.03;;;;;;;;;;5093265;28;20432;-46
2021/12/31 03:12:26;;;;;;;61.55;34.25;;;;;;;;;;5093294;28;20027;-46
2021/12/31 03:14:54;;;;;;;64.03;34.42;;;;;;;;;;5093447;28;20044;-43
2021/12/31 03:17:23;;;;;;;64.45;35.58;;;;;;;;;;5093406;28;20024;-46
2021/12/31 03:19:49;;;;;;;54.78;31.77;;;;;;;;;;5092401;28;20511;-44
2021/12/31 03:22:16;;;;;;;58.45;33.20;;;;;;;;;;5097490;28;20035;-43
2021/12/31 03:24:44;;;;;;;62.83;34.75;;;;;;;;;;5097327;28;20024;-49
2021/12/31 03:27:11;;;;;;;64.93;35.03;;;;;;;;;;5097224;28;20183;-43
2021/12/31 03:29:37;;;;;;;59.25;33.97;;;;;;;;;;5097091;28;20032;-50
2021/12/31 03:32:03;;;;;;;62.22;35.38;;;;;;;;;;5097419;28;20027;-49
2021/12/31 03:34:29;;;;;;;58.58;33.00;;;;;;;;;;5097141;28;20535;-50
2021/12/31 03:36:55;;;;;;;57.65;34.05;;;;;;;;;;5097032;28;20435;-44
2021/12/31 03:39:21;;;;;;;60.60;34.45;;;;;;;;;;5096934;28;20024;-45
2021/12/31 03:41:47;;;;;;;60.92;33.75;;;;;;;;;;5097092;28;20039;-49
2021/12/31 03:44:13;;;;;;;69.82;39.28;;;;;;;;;;5096936;28;20048;-49
2021/12/31 03:46:39;;;;;;;59.55;36.42;;;;;;;;;;5097018;28;20040;-43
2021/12/31 03:49:05;;;;;;;64.55;37.33;;;;;;;;;;5097002;28;20028;-45
2021/12/31 03:51:31;;;;;;;63.38;36.45;;;;;;;;;;5096712;28;20043;-51
2021/12/31 03:53:58;;;;;;;62.65;34.55;;;;;;;;;;5096674;28;20127;-44
2021/12/31 03:56:30;;;;;;;56.42;33.72;;;;;;;;;;5096748;28;20500;-44
2021/12/31 03:58:58;;;;;;;59.05;32.40;;;;;;;;;;5096893;28;20035;-44
2021/12/31 04:01:24;;;;;;;53.97;33.00;;;;;;;;;;5096634;28;20035;-46
2021/12/31 04:03:50;;;;;;;60.03;35.58;;;;;;;;;;5096598;28;20389;-40
2021/12/31 04:06:17;;;;;;;62.03;35.13;;;;;;;;;;5096648;28;20028;-41
2021/12/31 04:08:43;;;;;;;61.00;36.25;;;;;;;;;;5096480;28;20020;-46
2021/12/31 04:11:13;;;;;;;55.85;32.97;;;;;;;;;;5096536;28;20389;-49
2021/12/31 04:13:39;;;;;;;51.85;32.83;;;;;;;;;;5096457;28;20149;-42
2021/12/31 04:16:05;;;;;;;59.85;34.10;;;;;;;;;;5096330;28;20028;-53
2021/12/31 04:18:31;;;;;;;55.78;33.50;;;;;;;;;;5096285;28;20024;-41
2021/12/31 04:20:58;;;;;;;67.70;36.92;;;;;;;;;;5096366;28;20027;-44
2021/12/31 04:23:34;;;;;;;67.18;38.75;;;;;;;;;;5096084;28;20039;-51
2021/12/31 04:26:00;;;;;;;64.32;38.13;;;;;;;;;;5096429;28;20028;-41
2021/12/31 04:28:30;;;;;;;77.20;41.35;;;;;;;;;;5095932;28;20048;-41
2021/12/31 04:30:57;;;;;;;72.88;37.58;;;;;;;;;;5095743;28;20118;-43
2021/12/31 04:33:23;;;;;;;78.95;42.08;;;;;;;;;;5094899;28;20028;-38
2021/12/31 04:35:49;;;;;;;61.13;35.45;;;;;;;;;;5096142;28;20384;-41
2021/12/31 04:38:18;;;;;;;66.38;37.45;;;;;;;;;;5095978;28;20024;-43
2021/12/31 04:40:44;;;;;;;66.88;38.25;;;;;;;;;;5095778;28;20065;-40
2021/12/31 04:43:10;;;;;;;73.57;43.22;;;;;;;;;;5095612;28;20024;-41
2021/12/31 04:45:43;;;;;;;118.05;65.78;;;;;;;;;;5095767;28;20070;-42
2021/12/31 04:48:09;;;;;;;141.35;81.80;;;;;;;;;;5095688;28;20020;-49
2021/12/31 04:50:35;;;;;;;139.10;79.25;;;;;;;;;;5095438;28;20060;-40
2021/12/31 04:53:04;;;;;;;116.43;69.97;;;;;;;;;;5095504;28;20028;-39
2021/12/31 04:55:30;;;;;;;117.22;72.13;;;;;;;;;;5095652;28;20039;-39
2021/12/31 04:57:56;;;;;;;101.85;60.70;;;;;;;;;;5095132;28;20024;-40
2021/12/31 05:00:22;;;;;;;93.57;53.33;;;;;;;;;;5095340;28;20024;-43
2021/12/31 05:02:48;;;;;;;74.80;43.40;;;;;;;;;;5095305;28;20024;-43
2021/12/31 05:05:14;;;;;;;69.93;39.97;;;;;;;;;;5095178;28;20017;-43
2021/12/31 05:07:40;;;;;;;79.80;44.72;;;;;;;;;;5095340;28;20024;-43
2021/12/31 05:10:09;;;;;;;93.65;54.78;;;;;;;;;;5095077;28;20036;-44
2021/12/31 05:12:37;;;;;;;111.18;61.97;;;;;;;;;;5095191;28;20020;-43
2021/12/31 05:15:07;;;;;;;87.85;50.13;;;;;;;;;;5094992;28;20016;-42
2021/12/31 05:17:34;;;;;;;81.20;44.10;;;;;;;;;;5095143;28;20023;-43
2021/12/31 05:20:05;;;;;;;87.03;44.72;;;;;;;;;;5095115;28;20111;-42
2021/12/31 05:22:31;;;;;;;84.72;45.90;;;;;;;;;;5094915;28;20024;-43
2021/12/31 05:24:57;;;;;;;76.93;44.05;;;;;;;;;;5095027;28;20036;-43
2021/12/31 05:27:23;;;;;;;75.50;39.63;;;;;;;;;;5094553;28;20040;-42
2021/12/31 05:29:49;;;;;;;69.60;40.88;;;;;;;;;;5094504;28;20069;-42
2021/12/31 05:32:15;;;;;;;95.10;48.95;;;;;;;;;;5093521;28;20036;-43
2021/12/31 05:34:41;;;;;;;102.95;50.83;;;;;;;;;;5094825;28;20017;-42
2021/12/31 05:37:07;;;;;;;84.78;42.47;;;;;;;;;;5094643;28;20024;-46
2021/12/31 05:39:33;;;;;;;84.28;47.25;;;;;;;;;;5094772;28;20077;-40
2021/12/31 05:41:59;;;;;;;92.10;48.03;;;;;;;;;;5094599;28;20023;-45
2021/12/31 05:44:25;;;;;;;111.20;51.03;;;;;;;;;;5094069;28;20031;-45
2021/12/31 05:46:53;;;;;;;122.68;54.22;;;;;;;;;;5094601;28;20024;-41
2021/12/31 05:49:20;;;;;;;111.97;54.33;;;;;;;;;;5094514;28;20024;-42
2021/12/31 05:51:46;;;;;;;81.38;42.63;;;;;;;;;;5094434;28;20043;-41
2021/12/31 05:54:12;;;;;;;82.40;47.25;;;;;;;;;;5094362;28;20111;-41
2021/12/31 05:56:38;;;;;;;78.15;42.50;;;;;;;;;;5094350;28;20038;-41
2021/12/31 05:59:04;;;;;;;99.07;52.60;;;;;;;;;;5094306;28;20077;-43
2021/12/31 06:01:31;;;;;;;83.35;45.05;;;;;;;;;;5094255;28;20052;-41
2021/12/31 06:03:57;;;;;;;84.82;46.17;;;;;;;;;;5094455;28;20028;-44
2021/12/31 06:06:23;;;;;;;87.30;46.30;;;;;;;;;;5093965;28;20028;-42
2021/12/31 06:08:49;;;;;;;89.40;46.50;;;;;;;;;;5094103;28;20020;-41
2021/12/31 06:11:15;;;;;;;83.95;46.10;;;;;;;;;;5094204;28;20354;-44
2021/12/31 06:13:43;;;;;;;77.70;42.75;;;;;;;;;;5093853;28;20027;-43
2021/12/31 06:16:09;;;;;;;88.80;48.38;;;;;;;;;;5093971;28;20032;-41
2021/12/31 06:18:35;;;;;;;74.50;40.20;;;;;;;;;;5093815;28;20081;-41
2021/12/31 06:21:02;;;;;;;74.43;39.58;;;;;;;;;;5093889;28;20084;-41
2021/12/31 06:23:28;;;;;;;76.10;40.45;;;;;;;;;;5093923;28;20024;-41
2021/12/31 06:25:54;;;;;;;84.00;43.00;;;;;;;;;;5093804;28;20112;-42
2021/12/31 06:28:20;;;;;;;77.80;41.70;;;;;;;;;;5093625;28;20044;-43
2021/12/31 06:30:48;;;;;;;82.13;46.50;;;;;;;;;;5093551;28;20054;-43
2021/12/31 06:33:14;;;;;;;80.60;44.85;;;;;;;;;;5093947;28;20051;-40
2021/12/31 06:35:40;;;;;;;74.78;40.78;;;;;;;;;;5093610;28;20480;-42
2021/12/31 06:38:07;;;;;;;72.20;40.47;;;;;;;;;;5093894;28;20024;-43
2021/12/31 06:40:35;;;;;;;64.43;37.67;;;;;;;;;;5093600;28;20026;-46
2021/12/31 06:43:01;;;;;;;74.05;39.97;;;;;;;;;;5093744;28;20022;-45
2021/12/31 06:45:27;;;;;;;69.68;36.90;;;;;;;;;;5093596;28;20032;-45
2021/12/31 06:47:53;;;;;;;66.70;38.30;;;;;;;;;;5093587;28;20127;-45
2021/12/31 06:50:20;;;;;;;67.57;38.17;;;;;;;;;;5093686;28;20036;-42
2021/12/31 06:52:46;;;;;;;67.80;40.63;;;;;;;;;;5093317;28;20049;-44
2021/12/31 06:55:12;;;;;;;76.68;45.03;;;;;;;;;;5092589;28;20032;-41
2021/12/31 06:57:41;;;;;;;73.25;42.25;;;;;;;;;;5093357;28;20473;-44
2021/12/31 07:00:08;;;;;;;74.80;41.28;;;;;;;;;;5093404;28;20409;-45
2021/12/31 07:02:34;;;;;;;86.13;47.38;;;;;;;;;;5093408;28;20140;-45
2021/12/31 07:05:00;;;;;;;89.70;48.35;;;;;;;;;;5093374;28;20388;-45
2021/12/31 07:07:26;;;;;;;84.43;45.30;;;;;;;;;;5093130;28;20024;-45
2021/12/31 07:09:52;;;;;;;71.15;42.17;;;;;;;;;;5093071;28;20031;-45
2021/12/31 07:12:18;;;;;;;81.10;42.53;;;;;;;;;;5093222;28;20023;-44
2021/12/31 07:14:45;;;;;;;84.57;44.42;;;;;;;;;;5093195;28;20040;-42
2021/12/31 07:17:11;;;;;;;74.20;42.95;;;;;;;;;;5093144;28;20024;-42
2021/12/31 07:19:37;;;;;;;89.45;50.72;;;;;;;;;;5093388;28;20016;-43
2021/12/31 07:22:03;;;;;;;82.03;46.80;;;;;;;;;;5093162;28;20020;-42
2021/12/31 07:24:29;;;;;;;87.20;51.90;;;;;;;;;;5093096;28;20172;-40
2021/12/31 07:26:55;;;;;;;87.03;47.80;;;;;;;;;;5092745;28;20520;-42
2021/12/31 07:29:21;;;;;;;80.30;48.70;;;;;;;;;;5093038;28;20028;-41
2021/12/31 07:31:47;;;;;;;87.88;48.83;;;;;;;;;;5093181;28;20028;-47
2021/12/31 07:34:13;;;;;;;94.03;53.97;;;;;;;;;;5093123;28;20028;-42
2021/12/31 07:36:39;;;;;;;117.60;64.05;;;;;;;;;;5093078;28;20051;-41
2021/12/31 07:39:08;;;;;;;111.60;61.63;;;;;;;;;;5093084;28;20085;-41
2021/12/31 07:41:34;;;;;;;105.38;59.35;;;;;;;;;;5093243;28;20443;-41
2021/12/31 07:44:00;;;;;;;116.63;63.28;;;;;;;;;;5092968;28;20081;-42
2021/12/31 07:46:27;;;;;;;128.40;67.05;;;;;;;;;;5093174;28;20048;-40
2021/12/31 07:48:53;;;;;;;136.45;73.22;;;;;;;;;;5093018;28;20070;-41
2021/12/31 07:51:19;;;;;;;111.95;62.45;;;;;;;;;;5092639;28;20032;-40
2021/12/31 07:53:45;;;;;;;103.38;55.10;;;;;;;;;;5092838;28;20765;-41
2021/12/31 07:56:14;;;;;;;100.72;53.38;;;;;;;;;;5092952;28;20028;-41
2021/12/31 07:58:40;;;;;;;92.88;52.72;;;;;;;;;;5092927;28;20047;-42
2021/12/31 08:01:06;;;;;;;98.05;54.17;;;;;;;;;;5093067;28;20388;-40
2021/12/31 08:03:35;;;;;;;108.20;60.97;;;;;;;;;;5092689;28;20111;-40
2021/12/31 08:06:01;;;;;;;104.97;56.35;;;;;;;;;;5093190;28;20489;-41
2021/12/31 08:08:27;;;;;;;92.25;52.00;;;;;;;;;;5094646;28;20115;-40
2021/12/31 08:10:53;;;;;;;91.53;51.88;;;;;;;;;;5096333;28;20040;-41
2021/12/31 08:13:19;;;;;;;105.40;59.55;;;;;;;;;;5096250;28;20021;-41
2021/12/31 08:15:45;;;;;;;84.28;46.88;;;;;;;;;;5096121;28;20032;-41
2021/12/31 08:18:11;;;;;;;81.35;47.33;;;;;;;;;;5095317;28;20059;-41
2021/12/31 08:20:37;;;;;;;73.63;45.22;;;;;;;;;;5092813;28;20553;-42
2021/12/31 08:23:07;;;;;;;88.53;48.88;;;;;;;;;;5094223;28;20274;-41
2021/12/31 08:25:33;;;;;;;86.05;50.65;;;;;;;;;;5095143;28;20069;-41
2021/12/31 08:27:59;;;;;;;83.80;46.78;;;;;;;;;;5095450;28;20055;-41
2021/12/31 08:30:25;;;;;;;81.20;48.10;;;;;;;;;;5094282;28;20032;-41
2021/12/31 08:32:51;;;;;;;80.82;48.70;;;;;;;;;;5094354;28;20152;-40
2021/12/31 08:35:20;;;;;;;80.57;46.92;;;;;;;;;;5095470;28;20023;-39
2021/12/31 08:37:46;;;;;;;87.95;51.78;;;;;;;;;;5093503;28;20107;-38
2021/12/31 08:40:13;;;;;;;73.18;45.80;;;;;;;;;;5094366;28;20052;-39
2021/12/31 08:42:42;;;;;;;75.68;45.97;;;;;;;;;;5094556;28;20058;-39
2021/12/31 08:45:08;;;;;;;86.97;53.22;;;;;;;;;;5094381;28;20031;-39
2021/12/31 08:47:34;;;;;;;84.78;52.28;;;;;;;;;;5095742;28;20028;-42
2021/12/31 08:50:03;;;;;;;87.05;51.83;;;;;;;;;;5095526;28;20485;-41
2021/12/31 08:52:29;;;;;;;75.88;45.33;;;;;;;;;;5095462;28;20020;-41
2021/12/31 08:54:55;;;;;;;81.32;48.67;;;;;;;;;;5094837;28;20048;-41
2021/12/31 08:57:21;;;;;;;81.80;48.15;;;;;;;;;;5095447;28;20027;-42
2021/12/31 08:59:50;;;;;;;82.13;47.80;;;;;;;;;;5095506;28;20056;-42
2021/12/31 09:02:16;;;;;;;61.90;37.75;;;;;;;;;;5095373;28;20032;-41
2021/12/31 09:04:42;;;;;;;61.80;38.75;;;;;;;;;;5094310;28;20342;-39
2021/12/31 09:07:08;;;;;;;61.40;37.70;;;;;;;;;;5093629;28;20039;-39
2021/12/31 09:09:34;;;;;;;179.48;98.25;;;;;;;;;;5094379;28;20024;-40
2021/12/31 09:12:00;;;;;;;163.63;90.30;;;;;;;;;;5094416;28;20050;-45
2021/12/31 09:14:26;;;;;;;104.10;59.47;;;;;;;;;;5093742;28;20022;-41
2021/12/31 09:16:52;;;;;;;70.85;42.80;;;;;;;;;;5093606;28;20066;-41
2021/12/31 09:19:18;;;;;;;75.43;45.97;;;;;;;;;;5089717;28;20414;-43
2021/12/31 09:21:44;;;;;;;75.30;45.28;;;;;;;;;;5095234;28;20084;-41
2021/12/31 09:24:11;;;;;;;71.45;44.20;;;;;;;;;;5094852;28;20099;-43
2021/12/31 09:26:37;;;;;;;69.82;43.92;;;;;;;;;;5094567;28;20026;-45
2021/12/31 09:29:03;;;;;;;71.90;42.15;;;;;;;;;;5094791;28;20100;-44
2021/12/31 09:31:29;;;;;;;67.18;40.20;;;;;;;;;;5094678;28;20028;-46
2021/12/31 09:33:55;;;;;;;66.00;39.67;;;;;;;;;;5094588;28;20017;-41
2021/12/31 09:36:24;;;;;;;64.80;39.53;;;;;;;;;;5094684;28;20024;-41
2021/12/31 09:38:51;;;;;;;65.10;38.78;;;;;;;;;;5094598;28;20052;-41
2021/12/31 09:41:17;;;;;;;66.20;41.20;;;;;;;;;;5094712;28;20093;-41
2021/12/31 09:43:45;;;;;;;64.55;37.20;;;;;;;;;;5094432;28;20026;-41
2021/12/31 09:46:12;;;;;;;64.22;38.65;;;;;;;;;;5094402;28;20024;-42
2021/12/31 09:48:38;;;;;;;63.58;37.80;;;;;;;;;;5094459;28;20073;-39
2021/12/31 09:51:07;;;;;;;67.30;38.88;;;;;;;;;;5094264;28;20566;-42
2021/12/31 09:53:33;;;;;;;153.32;84.05;;;;;;;;;;5093058;28;20028;-41
2021/12/31 09:55:59;;;;;;;149.05;86.20;;;;;;;;;;5094240;28;20027;-41
2021/12/31 09:58:26;;;;;;;120.22;66.75;;;;;;;;;;5094229;28;20034;-40
2021/12/31 10:00:53;;;;;;;98.20;54.92;;;;;;;;;;5094191;28;20024;-39
2021/12/31 10:03:25;;;;;;;98.10;56.03;;;;;;;;;;5093986;28;20031;-41
2021/12/31 10:05:52;;;;;;;114.32;67.15;;;;;;;;;;5093927;28;20067;-40
2021/12/31 10:08:23;;;;;;;74.45;45.85;;;;;;;;;;5094228;28;20051;-44
2021/12/31 10:11:06;;;;;;;102.05;57.58;;;;;;;;;;5093924;28;20032;-40
2021/12/31 10:13:33;;;;;;;66.40;39.90;;;;;;;;;;5093977;28;20081;-39
2021/12/31 10:15:59;;;;;;;55.88;35.67;;;;;;;;;;5093856;28;20028;-41
2021/12/31 10:18:30;;;;;;;51.45;34.70;;;;;;;;;;5094265;28;20020;-41
2021/12/31 10:20:56;;;;;;;52.53;35.40;;;;;;;;;;5093885;28;20100;-40
2021/12/31 10:23:22;;;;;;;91.50;52.90;;;;;;;;;;5093889;28;20393;-40
2021/12/31 10:25:48;;;;;;;77.47;44.70;;;;;;;;;;5093724;28;20024;-40
2021/12/31 10:28:16;;;;;;;77.80;44.63;;;;;;;;;;5093901;28;20493;-40
2021/12/31 10:30:45;;;;;;;71.30;42.03;;;;;;;;;;5093494;28;20043;-41
2021/12/31 10:33:12;;;;;;;72.35;43.42;;;;;;;;;;5093659;28;20031;-40
2021/12/31 10:35:41;;;;;;;93.53;49.75;;;;;;;;;;5093694;28;20024;-40
2021/12/31 10:38:12;;;;;;;76.35;43.03;;;;;;;;;;5091313;28;20099;-39
2021/12/31 10:40:45;;;;;;;64.85;38.33;;;;;;;;;;5068415;28;20559;-41
2021/12/31 10:43:16;;;;;;;60.53;36.58;;;;;;;;;;5068319;28;20440;-42
2021/12/31 10:46:02;;;;;;;47.65;32.38;;;;;;;;;;5068190;28;20103;-39
2021/12/31 10:48:39;;;;;;;53.20;29.63;;;;;;;;;;5068615;28;20589;-40
2021/12/31 10:51:05;;;;;;;55.08;34.47;;;;;;;;;;5068123;28;20039;-41
2021/12/31 10:53:34;;;;;;;64.50;35.35;;;;;;;;;;5068301;28;20059;-41
2021/12/31 10:56:09;;;;;;;56.97;33.95;;;;;;;;;;5068714;28;20028;-41
2021/12/31 10:58:36;;;;;;;61.38;37.00;;;;;;;;;;5068324;28;20032;-41
2021/12/31 11:01:05;;;;;;;58.33;36.88;;;;;;;;;;5068200;28;20031;-42
2021/12/31 11:03:32;;;;;;;63.75;39.38;;;;;;;;;;5067980;28;20567;-41
2021/12/31 11:05:58;;;;;;;59.70;37.17;;;;;;;;;;5068655;28;20028;-41
2021/12/31 11:08:24;;;;;;;61.30;36.50;;;;;;;;;;5068104;28;20093;-41
2021/12/31 11:10:51;;;;;;;56.72;33.80;;;;;;;;;;5068067;28;20040;-41
2021/12/31 11:13:19;;;;;;;52.58;34.92;;;;;;;;;;5068150;28;20318;-40
2021/12/31 11:15:46;;;;;;;59.35;36.03;;;;;;;;;;5068147;28;20446;-42
2021/12/31 11:18:13;;;;;;;58.80;35.90;;;;;;;;;;5082775;28;20031;-40
2021/12/31 11:20:41;;;;;;;57.92;36.75;;;;;;;;;;5093095;28;20465;-44
2021/12/31 11:23:07;;;;;;;54.95;35.05;;;;;;;;;;5093526;28;20532;-46
2021/12/31 11:25:33;;;;;;;51.58;32.75;;;;;;;;;;5093236;28;20031;-43
2021/12/31 11:27:59;;;;;;;49.42;31.52;;;;;;;;;;5092938;28;20052;-47
2021/12/31 11:30:30;;;;;;;56.42;35.75;;;;;;;;;;5092899;28;20040;-47
2021/12/31 11:32:58;;;;;;;65.20;36.93;;;;;;;;;;5093010;28;20031;-41
2021/12/31 11:35:28;;;;;;;74.70;39.38;;;;;;;;;;5092906;28;20028;-42
2021/12/31 11:37:54;;;;;;;78.05;41.53;;;;;;;;;;5092988;28;20052;-45
2021/12/31 11:40:38;;;;;;;71.70;39.00;;;;;;;;;;5093060;28;20069;-45
2021/12/31 11:43:13;;;;;;;52.58;34.47;;;;;;;;;;5096762;28;20036;-40
2021/12/31 11:45:40;;;;;;;53.65;34.28;;;;;;;;;;5097020;28;20107;-45
2021/12/31 11:48:47;;;;;;;54.42;34.33;;;;;;;;;;5096783;28;20032;-42
2021/12/31 11:51:16;;;;;;;73.53;43.70;;;;;;;;;;5054050;28;20040;-41
2021/12/31 11:53:59;;;;;;;58.33;34.90;;;;;;;;;;5054381;28;20120;-41
2021/12/31 11:56:34;;;;;;;60.75;37.08;;;;;;;;;;5054169;28;20065;-43
2021/12/31 11:59:10;;;;;;;62.80;37.05;;;;;;;;;;5054146;28;20036;-43
2021/12/31 12:01:48;;;;;;;70.15;39.95;;;;;;;;;;5053948;28;20033;-46
2021/12/31 12:04:20;;;;;;;69.88;40.17;;;;;;;;;;5054094;28;20029;-43
2021/12/31 12:06:52;;;;;;;58.20;34.55;;;;;;;;;;5054098;28;20029;-40
2021/12/31 12:09:18;;;;;;;65.28;36.65;;;;;;;;;;5054022;28;20041;-41
2021/12/31 12:12:00;;;;;;;68.28;37.65;;;;;;;;;;5053948;28;20426;-45
2021/12/31 12:14:42;;;;;;;62.78;36.45;;;;;;;;;;5053756;28;20021;-42
2021/12/31 12:17:10;;;;;;;52.30;30.92;;;;;;;;;;5053941;28;20090;-43
2021/12/31 12:19:50;;;;;;;51.53;32.58;;;;;;;;;;5053816;28;20032;-40
2021/12/31 12:22:31;;;;;;;46.42;30.30;;;;;;;;;;5081306;28;20077;-48
2021/12/31 12:24:58;;;;;;;49.95;31.23;;;;;;;;;;5096280;28;20032;-40
2021/12/31 12:27:25;;;;;;;54.13;28.92;;;;;;;;;;5095956;28;20048;-45
2021/12/31 12:29:51;;;;;;;48.05;28.70;;;;;;;;;;5095787;28;20046;-44
2021/12/31 12:32:29;;;;;;;47.45;30.33;;;;;;;;;;5095966;28;20036;-40
2021/12/31 12:34:57;;;;;;;40.72;26.13;;;;;;;;;;5095829;28;20020;-44
2021/12/31 12:37:30;;;;;;;45.03;26.63;;;;;;;;;;5095883;28;20492;-47
2021/12/31 12:40:00;;;;;;;35.85;24.42;;;;;;;;;;5095931;28;20026;-39
2021/12/31 12:42:26;;;;;;;37.00;23.52;;;;;;;;;;5095736;28;20024;-40
2021/12/31 12:45:03;;;;;;;31.33;20.77;;;;;;;;;;5095585;28;20085;-43
2021/12/31 12:47:29;;;;;;;31.33;21.63;;;;;;;;;;5095662;28;20039;-40
2021/12/31 12:49:56;;;;;;;34.72;22.88;;;;;;;;;;5095490;28;20031;-43
2021/12/31 12:52:22;;;;;;;33.63;22.80;;;;;;;;;;5094815;28;20032;-41
2021/12/31 12:54:49;;;;;;;32.38;21.85;;;;;;;;;;5095166;28;20016;-41
2021/12/31 12:57:24;;;;;;;33.13;22.27;;;;;;;;;;5095491;28;20040;-44
2021/12/31 12:59:50;;;;;;;34.55;22.83;;;;;;;;;;5095846;28;20032;-43
2021/12/31 13:02:35;;;;;;;30.48;21.02;;;;;;;;;;5095327;28;20069;-42
2021/12/31 13:05:05;;;;;;;36.67;21.15;;;;;;;;;;5095376;28;20052;-40
2021/12/31 13:07:36;;;;;;;38.35;23.88;;;;;;;;;;5095237;28;20028;-40
2021/12/31 13:10:05;;;;;;;35.90;23.43;;;;;;;;;;5095376;28;20044;-40
2021/12/31 13:12:32;;;;;;;37.72;23.75;;;;;;;;;;5093784;28;20052;-43
2021/12/31 13:14:59;;;;;;;35.00;23.45;;;;;;;;;;5094959;28;20016;-41
2021/12/31 13:17:27;;;;;;;37.00;24.08;;;;;;;;;;5095080;28;20060;-40
2021/12/31 13:20:03;;;;;;;38.80;24.15;;;;;;;;;;5095594;28;20052;-40
2021/12/31 13:22:33;;;;;;;35.88;23.60;;;;;;;;;;5094889;28;20035;-40
2021/12/31 13:24:59;;;;;;;33.40;23.40;;;;;;;;;;5094910;28;20020;-42
2021/12/31 13:27:27;;;;;;;31.75;22.63;;;;;;;;;;5094985;28;20048;-40
2021/12/31 13:30:03;;;;;;;31.77;22.60;;;;;;;;;;5094717;28;20148;-45
2021/12/31 13:32:37;;;;;;;36.47;24.17;;;;;;;;;;5094856;28;20039;-42
2021/12/31 13:35:06;;;;;;;36.45;24.65;;;;;;;;;;5094819;28;20032;-45
2021/12/31 13:37:38;;;;;;;35.13;23.90;;;;;;;;;;5094659;28;20488;-41
2021/12/31 13:40:05;;;;;;;31.00;22.67;;;;;;;;;;5094621;28;20059;-42
2021/12/31 13:42:31;;;;;;;37.42;24.08;;;;;;;;;;5094942;28;20089;-44
2021/12/31 13:44:57;;;;;;;36.40;22.85;;;;;;;;;;5094823;28;20020;-44
2021/12/31 13:47:25;;;;;;;35.40;22.52;;;;;;;;;;5094814;28;20028;-43
2021/12/31 13:50:03;;;;;;;38.38;24.25;;;;;;;;;;5094467;28;20112;-43
2021/12/31 13:52:34;;;;;;;34.55;23.75;;;;;;;;;;5094364;28;20044;-42
2021/12/31 13:55:01;;;;;;;31.50;23.15;;;;;;;;;;5094291;28;20052;-42
2021/12/31 13:57:29;;;;;;;33.40;23.85;;;;;;;;;;5094438;28;20030;-46
2021/12/31 14:00:09;;;;;;;33.80;24.15;;;;;;;;;;5094167;28;20024;-44
2021/12/31 14:02:39;;;;;;;34.38;23.48;;;;;;;;;;5094080;28;20031;-43
2021/12/31 14:05:09;;;;;;;73.85;48.35;;;;;;;;;;5093680;28;20059;-40
2021/12/31 14:07:44;;;;;;;41.97;27.58;;;;;;;;;;5094553;28;20020;-46
2021/12/31 14:10:13;;;;;;;56.47;34.63;;;;;;;;;;5094125;28;20028;-41
2021/12/31 14:12:50;;;;;;;52.35;33.42;;;;;;;;;;5092570;28;20039;-36
2021/12/31 14:15:17;;;;;;;41.60;26.85;;;;;;;;;;5094142;28;20426;-37
2021/12/31 14:17:47;;;;;;;36.92;24.98;;;;;;;;;;5093848;28;20028;-40
2021/12/31 14:20:14;;;;;;;57.25;37.40;;;;;;;;;;5093678;28;20428;-37
2021/12/31 14:22:40;;;;;;;42.40;29.42;;;;;;;;;;5092433;28;20464;-51
2021/12/31 14:25:09;;;;;;;39.50;26.52;;;;;;;;;;5093723;28;20043;-50